Kaneohe, HI

9:51 AM HST on April 28, 2015 (GMT -1000)
Haiku Plantations | | Change Station
CLOSE
Current Station
Personal Weather Station
Location: Kaneohe, HI
Elevation: 249 ft
Nearby Weather Stations
Active Advisory: High Surf Advisory Active Notice: Record Report

Elev 249 ft 21.42 °N, 157.82 °W | Updated 26 seconds ago

Mostly Cloudy
Mostly Cloudy
74.1 °F
Feels Like 73 °F
N
0.9
Wind Variable Wind from SSW
Gusts 2.5 mph

Today
High -- | Low -- °F
--% Chance of Precip.
Yesterday
High -- | Low -- °F
Precip. -- in
6:02 AM 6:55 PM
Waxing Gibbous, 76% visible
Pressure 30.12 in
Visibility -9999.0 miles
Clouds Scattered Clouds 1800 ft
Mostly Cloudy 2600 ft
Mostly Cloudy 4000 ft
Heat Index 73 °F
Dew Point 71 °F
Humidity 89%
Rainfall 0.04 in
Snow Depth Not available.
UV 1.0 out of 12
Pollen Not available.
Air Quality Not available.
Flu Activity Regional
SPECI PHNG 281931Z 07013G22KT SCT018 BKN026 BKN040 25/20 A3012 RMK AO2 RAE18 P0000 T02500200 $

More Conditions Fewer Conditions

Pressure 30.12 in
Visibility -9999.0 miles
Clouds Scattered Clouds 1800 ft
Mostly Cloudy 2600 ft
Mostly Cloudy 4000 ft
Heat Index 73 °F
Dew Point 71 °F
Humidity 89%
Rainfall 0.04 in
Snow Depth Not available.
UV 1.0 out of 12
Pollen Not available.
Air Quality Not available.
Flu Activity Regional
SPECI PHNG 281931Z 07013G22KT SCT018 BKN026 BKN040 25/20 A3012 RMK AO2 RAE18 P0000 T02500200 $

More Conditions Fewer Conditions

10-Day Weather Forecast

Almanac

Astronomy

Apr. 28, 2015 Rise Set
Actual Time
Civil Twilight
Nautical Twilight
Astronomical Twilight
Moon
Length of Visible Light
Length of Day
Tomorrow will be .
, % of the Moon is Illuminated

Today's Extremes

State Highs State Lows

Community

WunderPhotos

Upload Photos

1,817,741 photos uploaded!

WunderBlogs® & News

Nearby

Air Quality

  Air Quality AQ Index Pollutant
Not available.

Snow Depth

Station Depth Elevation

Earthquake Activity

City Distance Mag. Time & Date
Minimum magnitude displayed is 2.5.

Coastal Water Temperatures

Place Temperature

Stations

Nearby Weather Stations

Station Location Temp. Windchill Dew Point Humidity Wind Precip. Elev Updated Type
                   
High Surf Advisory
Statement as of 3:21 AM HST on April 28, 2015

... High surf advisory remains in effect until 6 am HST Thursday...

A high surf advisory remains in effect until 6 am HST Thursday.

* Surf... 6 to 9 feet along east facing shores.

* Timing... along east facing shores... through Wednesday night.

* Impacts... moderate... expect strong breaking waves... shore
break... and strong longshore and rip currents making swimming
difficult and dangerous.

Precautionary/preparedness actions...

Beachgoers... swimmers... and surfers should heed all advice given
by ocean safety officials and exercise caution. Boaters should
expect recreational surfers and body boarders utilizing Harbor
channels to access surfing areas.